sensor_id;sensor_type;location;lat;lon;timestamp;pressure;altitude;pressure_sealevel;temperature;humidity
27425;BME280;15244;49.088;11.886;2022-12-07T00:01:55;95659.19;;;5.78;57.52
27425;BME280;15244;49.088;11.886;2022-12-07T00:06:59;95660.06;;;5.82;57.35
27425;BME280;15244;49.088;11.886;2022-12-07T00:12:03;95652.78;;;5.86;57.24
27425;BME280;15244;49.088;11.886;2022-12-07T00:17:09;95654.00;;;5.89;56.43
27425;BME280;15244;49.088;11.886;2022-12-07T00:22:23;95648.66;;;5.93;56.52
27425;BME280;15244;49.088;11.886;2022-12-07T00:27:26;95650.25;;;5.94;56.56
27425;BME280;15244;49.088;11.886;2022-12-07T00:32:38;95640.56;;;5.93;56.39
27425;BME280;15244;49.088;11.886;2022-12-07T00:37:41;95640.13;;;5.91;56.47
27425;BME280;15244;49.088;11.886;2022-12-07T00:42:46;95640.13;;;5.91;56.22
27425;BME280;15244;49.088;11.886;2022-12-07T00:47:50;95646.66;;;5.90;55.83
27425;BME280;15244;49.088;11.886;2022-12-07T00:52:55;95642.44;;;5.92;55.90
27425;BME280;15244;49.088;11.886;2022-12-07T00:57:59;95635.47;;;5.91;56.77
27425;BME280;15244;49.088;11.886;2022-12-07T01:03:10;95643.25;;;5.93;55.75
27425;BME280;15244;49.088;11.886;2022-12-07T01:08:24;95642.91;;;5.94;55.90
27425;BME280;15244;49.088;11.886;2022-12-07T01:13:26;95646.06;;;5.96;55.97
27425;BME280;15244;49.088;11.886;2022-12-07T01:18:31;95656.09;;;5.96;55.93
27425;BME280;15244;49.088;11.886;2022-12-07T01:23:35;95655.31;;;5.95;55.43
27425;BME280;15244;49.088;11.886;2022-12-07T01:28:42;95656.53;;;5.98;55.81
27425;BME280;15244;49.088;11.886;2022-12-07T01:33:57;95663.06;;;5.97;55.54
27425;BME280;15244;49.088;11.886;2022-12-07T01:39:13;95655.66;;;5.94;55.87
27425;BME280;15244;49.088;11.886;2022-12-07T01:44:22;95651.38;;;5.93;55.34
27425;BME280;15244;49.088;11.886;2022-12-07T01:49:46;95659.94;;;5.95;54.96
27425;BME280;15244;49.088;11.886;2022-12-07T01:54:53;95655.19;;;5.92;54.95
27425;BME280;15244;49.088;11.886;2022-12-07T02:00:16;95648.66;;;5.93;55.24
27425;BME280;15244;49.088;11.886;2022-12-07T02:05:19;95646.75;;;5.93;55.15
27425;BME280;15244;49.088;11.886;2022-12-07T02:10:29;95643.69;;;5.95;54.94
27425;BME280;15244;49.088;11.886;2022-12-07T02:15:48;95640.63;;;5.96;55.37
27425;BME280;15244;49.088;11.886;2022-12-07T02:21:05;95640.31;;;5.98;55.23
27425;BME280;15244;49.088;11.886;2022-12-07T02:26:19;95639.59;;;6.01;55.04
27425;BME280;15244;49.088;11.886;2022-12-07T02:31:36;95638.88;;;6.04;54.89
27425;BME280;15244;49.088;11.886;2022-12-07T02:36:48;95638.53;;;6.05;55.29
27425;BME280;15244;49.088;11.886;2022-12-07T02:42:12;95637.72;;;6.05;55.20
27425;BME280;15244;49.088;11.886;2022-12-07T02:47:18;95643.13;;;6.05;54.98
27425;BME280;15244;49.088;11.886;2022-12-07T02:52:27;95636.94;;;6.04;55.27
27425;BME280;15244;49.088;11.886;2022-12-07T02:57:38;95640.41;;;6.05;54.92
27425;BME280;15244;49.088;11.886;2022-12-07T03:03:00;95622.97;;;6.02;55.22
27425;BME280;15244;49.088;11.886;2022-12-07T03:08:13;95630.50;;;5.93;55.13
27425;BME280;15244;49.088;11.886;2022-12-07T03:18:51;95616.75;;;5.82;54.54
27425;BME280;15244;49.088;11.886;2022-12-07T03:24:09;95627.50;;;5.79;54.75
27425;BME280;15244;49.088;11.886;2022-12-07T03:29:26;95626.28;;;5.76;55.58
27425;BME280;15244;49.088;11.886;2022-12-07T03:34:45;95615.47;;;5.76;54.79
27425;BME280;15244;49.088;11.886;2022-12-07T03:40:02;95605.84;;;5.79;55.23
27425;BME280;15244;49.088;11.886;2022-12-07T03:45:12;95607.00;;;5.78;54.30
27425;BME280;15244;49.088;11.886;2022-12-07T03:50:41;95620.09;;;5.76;55.22
27425;BME280;15244;49.088;11.886;2022-12-07T03:55:48;95617.81;;;5.78;54.83
27425;BME280;15244;49.088;11.886;2022-12-07T04:00:52;95624.06;;;5.82;54.85
27425;BME280;15244;49.088;11.886;2022-12-07T04:05:54;95617.53;;;5.83;54.93
27425;BME280;15244;49.088;11.886;2022-12-07T04:11:07;95617.16;;;5.84;55.30
27425;BME280;15244;49.088;11.886;2022-12-07T04:16:09;95616.06;;;5.85;55.21
27425;BME280;15244;49.088;11.886;2022-12-07T04:21:16;95612.19;;;5.86;55.30
27425;BME280;15244;49.088;11.886;2022-12-07T04:26:25;95612.56;;;5.85;55.05
27425;BME280;15244;49.088;11.886;2022-12-07T04:31:28;95612.56;;;5.85;55.08
27425;BME280;15244;49.088;11.886;2022-12-07T04:36:33;95607.16;;;5.85;55.08
27425;BME280;15244;49.088;11.886;2022-12-07T04:41:34;95590.13;;;5.84;55.09
27425;BME280;15244;49.088;11.886;2022-12-07T04:46:36;95596.34;;;5.85;54.83
27425;BME280;15244;49.088;11.886;2022-12-07T04:51:41;95587.06;;;5.86;54.68
27425;BME280;15244;49.088;11.886;2022-12-07T04:56:43;95583.50;;;5.82;54.76
27425;BME280;15244;49.088;11.886;2022-12-07T05:01:49;95562.06;;;5.73;54.50
27425;BME280;15244;49.088;11.886;2022-12-07T05:06:53;95555.81;;;5.69;54.26
27425;BME280;15244;49.088;11.886;2022-12-07T05:11:57;95556.47;;;5.62;54.85
27425;BME280;15244;49.088;11.886;2022-12-07T05:17:08;95554.31;;;5.52;54.19
27425;BME280;15244;49.088;11.886;2022-12-07T05:22:19;95549.53;;;5.46;54.66
27425;BME280;15244;49.088;11.886;2022-12-07T05:27:28;95554.16;;;5.45;54.86
27425;BME280;15244;49.088;11.886;2022-12-07T05:32:29;95562.63;;;5.43;54.78
27425;BME280;15244;49.088;11.886;2022-12-07T05:37:36;95548.31;;;5.43;54.43
27425;BME280;15244;49.088;11.886;2022-12-07T05:42:42;95563.75;;;5.42;54.52
27425;BME280;15244;49.088;11.886;2022-12-07T05:47:45;95579.56;;;5.40;54.66
27425;BME280;15244;49.088;11.886;2022-12-07T05:52:53;95583.75;;;5.38;54.79
27425;BME280;15244;49.088;11.886;2022-12-07T05:57:54;95594.13;;;5.36;54.85
27425;BME280;15244;49.088;11.886;2022-12-07T06:03:22;95595.16;;;5.31;54.78
27425;BME280;15244;49.088;11.886;2022-12-07T06:08:30;95591.69;;;5.31;54.69
27425;BME280;15244;49.088;11.886;2022-12-07T06:13:36;95594.31;;;5.27;54.28
27425;BME280;15244;49.088;11.886;2022-12-07T06:18:47;95595.81;;;5.25;55.01
27425;BME280;15244;49.088;11.886;2022-12-07T06:23:49;95593.88;;;5.25;54.91
27425;BME280;15244;49.088;11.886;2022-12-07T06:28:53;95605.41;;;5.22;54.71
27425;BME280;15244;49.088;11.886;2022-12-07T06:34:01;95596.09;;;5.19;54.73
27425;BME280;15244;49.088;11.886;2022-12-07T06:39:10;95594.50;;;5.18;54.51
27425;BME280;15244;49.088;11.886;2022-12-07T06:44:17;95595.91;;;5.12;54.99
27425;BME280;15244;49.088;11.886;2022-12-07T06:49:19;95600.88;;;5.10;54.64
27425;BME280;15244;49.088;11.886;2022-12-07T06:54:24;95602.44;;;5.11;55.03
27425;BME280;15244;49.088;11.886;2022-12-07T06:59:32;95603.25;;;5.12;54.71
27425;BME280;15244;49.088;11.886;2022-12-07T07:04:57;95603.25;;;5.12;54.32
27425;BME280;15244;49.088;11.886;2022-12-07T07:10:11;95601.31;;;5.12;54.24
27425;BME280;15244;49.088;11.886;2022-12-07T07:15:22;95596.25;;;5.11;54.28
27425;BME280;15244;49.088;11.886;2022-12-07T07:20:30;95586.94;;;5.08;54.63
27425;BME280;15244;49.088;11.886;2022-12-07T07:25:37;95591.84;;;5.03;54.33
27425;BME280;15244;49.088;11.886;2022-12-07T07:30:48;95588.63;;;4.97;54.64
27425;BME280;15244;49.088;11.886;2022-12-07T07:35:55;95582.34;;;4.93;54.42
27425;BME280;15244;49.088;11.886;2022-12-07T07:40:56;95609.72;;;4.91;54.44
27425;BME280;15244;49.088;11.886;2022-12-07T07:46:00;95601.63;;;4.91;54.13
27425;BME280;15244;49.088;11.886;2022-12-07T07:51:06;95605.09;;;4.92;54.49
27425;BME280;15244;49.088;11.886;2022-12-07T07:56:10;95616.59;;;4.89;54.89
27425;BME280;15244;49.088;11.886;2022-12-07T08:01:15;95612.75;;;4.90;54.71
27425;BME280;15244;49.088;11.886;2022-12-07T08:06:21;95623.22;;;4.91;54.58
27425;BME280;15244;49.088;11.886;2022-12-07T08:11:35;95628.25;;;4.93;54.58
27425;BME280;15244;49.088;11.886;2022-12-07T08:16:39;95624.84;;;4.96;54.93
27425;BME280;15244;49.088;11.886;2022-12-07T08:21:44;95633.84;;;5.00;54.25
27425;BME280;15244;49.088;11.886;2022-12-07T08:26:55;95649.34;;;5.03;54.54
27425;BME280;15244;49.088;11.886;2022-12-07T08:31:59;95645.16;;;5.06;54.26
27425;BME280;15244;49.088;11.886;2022-12-07T08:37:09;95647.88;;;5.06;54.17
27425;BME280;15244;49.088;11.886;2022-12-07T08:42:11;95647.09;;;5.05;54.30
27425;BME280;15244;49.088;11.886;2022-12-07T08:47:25;95649.34;;;5.03;54.57
27425;BME280;15244;49.088;11.886;2022-12-07T08:52:30;95662.97;;;5.07;54.41
27425;BME280;15244;49.088;11.886;2022-12-07T08:57:40;95655.28;;;5.09;54.25
27425;BME280;15244;49.088;11.886;2022-12-07T09:02:43;95660.41;;;5.14;54.10
27425;BME280;15244;49.088;11.886;2022-12-07T09:07:51;95660.06;;;5.15;54.28
27425;BME280;15244;49.088;11.886;2022-12-07T09:13:01;95664.34;;;5.16;54.62
27425;BME280;15244;49.088;11.886;2022-12-07T09:18:04;95662.06;;;5.18;54.54
27425;BME280;15244;49.088;11.886;2022-12-07T09:23:07;95668.34;;;5.22;54.90
27425;BME280;15244;49.088;11.886;2022-12-07T09:28:11;95658.75;;;5.25;54.43
27425;BME280;15244;49.088;11.886;2022-12-07T09:33:13;95661.03;;;5.23;54.36
27425;BME280;15244;49.088;11.886;2022-12-07T09:38:21;95642.88;;;5.24;54.39
27425;BME280;15244;49.088;11.886;2022-12-07T09:43:36;95666.44;;;5.23;54.54
27425;BME280;15244;49.088;11.886;2022-12-07T09:48:49;95658.50;;;5.30;54.99
27425;BME280;15244;49.088;11.886;2022-12-07T09:53:54;95653.59;;;5.36;54.64
27425;BME280;15244;49.088;11.886;2022-12-07T09:59:00;95649.84;;;5.40;54.85
27425;BME280;15244;49.088;11.886;2022-12-07T10:04:38;95641.13;;;5.47;54.67
27425;BME280;15244;49.088;11.886;2022-12-07T10:09:41;95640.03;;;5.52;54.90
27425;BME280;15244;49.088;11.886;2022-12-07T10:14:59;95626.97;;;5.54;54.25
27425;BME280;15244;49.088;11.886;2022-12-07T10:20:25;95619.28;;;5.56;55.11
27425;BME280;15244;49.088;11.886;2022-12-07T10:25:34;95619.78;;;5.61;54.45
27425;BME280;15244;49.088;11.886;2022-12-07T10:35:57;95604.84;;;5.68;54.38
27425;BME280;15244;49.088;11.886;2022-12-07T10:41:06;95603.81;;;5.72;54.72
27425;BME280;15244;49.088;11.886;2022-12-07T10:46:40;95603.88;;;5.76;54.46
27425;BME280;15244;49.088;11.886;2022-12-07T10:52:44;95601.22;;;5.79;54.16
27425;BME280;15244;49.088;11.886;2022-12-07T11:08:01;95580.88;;;5.85;53.81
27425;BME280;15244;49.088;11.886;2022-12-07T11:13:25;95579.72;;;5.86;54.01
27425;BME280;15244;49.088;11.886;2022-12-07T11:24:18;95566.38;;;5.94;53.90
27425;BME280;15244;49.088;11.886;2022-12-07T11:34:52;95558.31;;;5.97;53.86
27425;BME280;15244;49.088;11.886;2022-12-07T11:40:05;95561.88;;;6.01;53.83
27425;BME280;15244;49.088;11.886;2022-12-07T11:45:23;95555.41;;;6.06;54.04
27425;BME280;15244;49.088;11.886;2022-12-07T11:50:42;95564.63;;;6.05;53.55
27425;BME280;15244;49.088;11.886;2022-12-07T11:56:09;95559.22;;;6.05;54.01
27425;BME280;15244;49.088;11.886;2022-12-07T12:06:38;95546.38;;;5.98;53.97
27425;BME280;15244;49.088;11.886;2022-12-07T12:24:09;95537.88;;;6.00;53.67
27425;BME280;15244;49.088;11.886;2022-12-07T12:34:04;95538.28;;;6.02;54.27
27425;BME280;15244;49.088;11.886;2022-12-07T12:39:26;95530.97;;;6.02;54.38
27425;BME280;15244;49.088;11.886;2022-12-07T12:49:42;95531.47;;;6.08;54.15
27425;BME280;15244;49.088;11.886;2022-12-07T12:54:59;95531.16;;;6.13;54.97
27425;BME280;15244;49.088;11.886;2022-12-07T13:05:32;95514.25;;;6.20;54.32
27425;BME280;15244;49.088;11.886;2022-12-07T13:10:37;95516.53;;;6.18;54.38
27425;BME280;15244;49.088;11.886;2022-12-07T13:15:56;95516.19;;;6.19;54.22
27425;BME280;15244;49.088;11.886;2022-12-07T13:36:50;95510.47;;;6.24;54.53
27425;BME280;15244;49.088;11.886;2022-12-07T13:42:06;95499.34;;;6.29;53.98
27425;BME280;15244;49.088;11.886;2022-12-07T13:47:16;95495.13;;;6.32;53.93
27425;BME280;15244;49.088;11.886;2022-12-07T13:52:29;95502.84;;;6.30;54.33
27425;BME280;15244;49.088;11.886;2022-12-07T13:57:39;95506.34;;;6.31;54.41
27425;BME280;15244;49.088;11.886;2022-12-07T14:18:43;95502.59;;;6.39;54.32
27425;BME280;15244;49.088;11.886;2022-12-07T14:23:45;95506.09;;;6.39;54.46
27425;BME280;15244;49.088;11.886;2022-12-07T14:29:28;95496.47;;;6.42;54.55
27425;BME280;15244;49.088;11.886;2022-12-07T14:34:43;95503.09;;;6.44;54.26
27425;BME280;15244;49.088;11.886;2022-12-07T14:39:53;95492.69;;;6.46;54.05
27425;BME280;15244;49.088;11.886;2022-12-07T14:44:59;95496.16;;;6.47;54.44
27425;BME280;15244;49.088;11.886;2022-12-07T14:50:17;95490.75;;;6.47;53.93
27425;BME280;15244;49.088;11.886;2022-12-07T14:55:31;95490.31;;;6.45;54.26
27425;BME280;15244;49.088;11.886;2022-12-07T15:00:33;95484.13;;;6.44;54.36
27425;BME280;15244;49.088;11.886;2022-12-07T15:05:43;95486.06;;;6.44;53.84
27425;BME280;15244;49.088;11.886;2022-12-07T15:10:48;95482.63;;;6.47;54.49
27425;BME280;15244;49.088;11.886;2022-12-07T15:15:59;95481.41;;;6.44;54.15
27425;BME280;15244;49.088;11.886;2022-12-07T15:21:09;95481.47;;;6.48;53.80
27425;BME280;15244;49.088;11.886;2022-12-07T15:26:18;95481.84;;;6.46;54.26
27425;BME280;15244;49.088;11.886;2022-12-07T15:31:25;95483.41;;;6.47;53.94
27425;BME280;15244;49.088;11.886;2022-12-07T15:36:50;95484.59;;;6.50;54.15
27425;BME280;15244;49.088;11.886;2022-12-07T15:41:51;95481.88;;;6.50;54.07
27425;BME280;15244;49.088;11.886;2022-12-07T15:47:00;95489.22;;;6.49;54.14
27425;BME280;15244;49.088;11.886;2022-12-07T15:52:09;95476.84;;;6.48;54.38
27425;BME280;15244;49.088;11.886;2022-12-07T15:57:13;95471.00;;;6.46;53.83
27425;BME280;15244;49.088;11.886;2022-12-07T16:02:15;95469.50;;;6.49;54.55
27425;BME280;15244;49.088;11.886;2022-12-07T16:07:19;95474.50;;;6.47;53.59
27425;BME280;15244;49.088;11.886;2022-12-07T16:12:20;95473.28;;;6.44;54.17
27425;BME280;15244;49.088;11.886;2022-12-07T16:17:25;95473.66;;;6.43;54.31
27425;BME280;15244;49.088;11.886;2022-12-07T16:22:33;95474.38;;;6.40;54.27
27425;BME280;15244;49.088;11.886;2022-12-07T16:27:44;95466.97;;;6.37;54.18
27425;BME280;15244;49.088;11.886;2022-12-07T16:32:51;95469.34;;;6.38;54.15
27425;BME280;15244;49.088;11.886;2022-12-07T16:37:56;95461.91;;;6.35;53.94
27425;BME280;15244;49.088;11.886;2022-12-07T16:43:00;95466.56;;;6.35;54.51
27425;BME280;15244;49.088;11.886;2022-12-07T16:48:02;95466.13;;;6.33;54.49
27425;BME280;15244;49.088;11.886;2022-12-07T16:53:18;95466.94;;;6.33;54.33
27425;BME280;15244;49.088;11.886;2022-12-07T16:58:22;95461.88;;;6.32;54.08
27425;BME280;15244;49.088;11.886;2022-12-07T17:03:29;95464.22;;;6.33;54.21
27425;BME280;15244;49.088;11.886;2022-12-07T17:08:39;95461.13;;;6.35;54.13
27425;BME280;15244;49.088;11.886;2022-12-07T17:13:50;95458.44;;;6.35;54.25
27425;BME280;15244;49.088;11.886;2022-12-07T17:19:16;95455.31;;;6.33;54.00
27425;BME280;15244;49.088;11.886;2022-12-07T17:24:18;95454.53;;;6.32;54.10
27425;BME280;15244;49.088;11.886;2022-12-07T17:29:25;95452.19;;;6.31;54.21
27425;BME280;15244;49.088;11.886;2022-12-07T17:34:34;95449.88;;;6.33;53.97
27425;BME280;15244;49.088;11.886;2022-12-07T17:39:39;95455.69;;;6.31;53.88
27425;BME280;15244;49.088;11.886;2022-12-07T17:44:40;95446.78;;;6.31;54.00
27425;BME280;15244;49.088;11.886;2022-12-07T17:49:45;95437.84;;;6.30;54.03
27425;BME280;15244;49.088;11.886;2022-12-07T17:54:47;95445.97;;;6.30;54.32
27425;BME280;15244;49.088;11.886;2022-12-07T17:59:53;95448.69;;;6.30;54.07
27425;BME280;15244;49.088;11.886;2022-12-07T18:04:58;95442.13;;;6.31;53.60
27425;BME280;15244;49.088;11.886;2022-12-07T18:10:03;95430.16;;;6.32;54.00
27425;BME280;15244;49.088;11.886;2022-12-07T18:15:24;95440.56;;;6.30;54.12
27425;BME280;15244;49.088;11.886;2022-12-07T18:20:28;95435.53;;;6.28;53.57
27425;BME280;15244;49.088;11.886;2022-12-07T18:25:35;95437.06;;;6.29;54.13
27425;BME280;15244;49.088;11.886;2022-12-07T18:30:42;95432.81;;;6.28;53.72
27425;BME280;15244;49.088;11.886;2022-12-07T18:36:19;95431.66;;;6.29;53.79
27425;BME280;15244;49.088;11.886;2022-12-07T18:41:23;95440.56;;;6.30;54.22
27425;BME280;15244;49.088;11.886;2022-12-07T18:46:29;95442.50;;;6.29;54.20
27425;BME280;15244;49.088;11.886;2022-12-07T18:51:31;95445.97;;;6.30;53.94
27425;BME280;15244;49.088;11.886;2022-12-07T18:56:39;95452.97;;;6.31;53.62
27425;BME280;15244;49.088;11.886;2022-12-07T19:01:53;95450.63;;;6.29;53.99
27425;BME280;15244;49.088;11.886;2022-12-07T19:06:58;95442.03;;;6.24;53.92
27425;BME280;15244;49.088;11.886;2022-12-07T19:11:59;95438.41;;;6.16;53.98
27425;BME280;15244;49.088;11.886;2022-12-07T19:17:10;95445.63;;;6.08;53.66
27425;BME280;15244;49.088;11.886;2022-12-07T19:22:21;95432.09;;;6.08;54.12
27425;BME280;15244;49.088;11.886;2022-12-07T19:27:24;95432.09;;;6.08;54.36
27425;BME280;15244;49.088;11.886;2022-12-07T19:32:30;95431.31;;;6.08;54.25
27425;BME280;15244;49.088;11.886;2022-12-07T19:37:33;95427.13;;;6.11;54.03
27425;BME280;15244;49.088;11.886;2022-12-07T19:42:37;95426.31;;;6.10;53.95
27425;BME280;15244;49.088;11.886;2022-12-07T19:47:38;95434.44;;;6.10;54.66
27425;BME280;15244;49.088;11.886;2022-12-07T19:52:40;95425.53;;;6.10;54.06
27425;BME280;15244;49.088;11.886;2022-12-07T19:57:48;95425.19;;;6.11;53.72
27425;BME280;15244;49.088;11.886;2022-12-07T20:02:52;95420.13;;;6.10;53.88
27425;BME280;15244;49.088;11.886;2022-12-07T20:07:57;95409.31;;;6.10;54.28
27425;BME280;15244;49.088;11.886;2022-12-07T20:13:07;95410.44;;;6.08;54.14
27425;BME280;15244;49.088;11.886;2022-12-07T20:18:30;95411.22;;;6.09;54.23
27425;BME280;15244;49.088;11.886;2022-12-07T20:23:37;95403.06;;;6.05;54.06
27425;BME280;15244;49.088;11.886;2022-12-07T20:28:41;95403.00;;;6.02;54.20
27425;BME280;15244;49.088;11.886;2022-12-07T20:33:51;95400.72;;;6.04;53.90
27425;BME280;15244;49.088;11.886;2022-12-07T20:38:58;95402.16;;;5.98;54.11
27425;BME280;15244;49.088;11.886;2022-12-07T20:44:01;95401.34;;;5.97;54.30
27425;BME280;15244;49.088;11.886;2022-12-07T20:49:08;95402.50;;;5.96;53.90
27425;BME280;15244;49.088;11.886;2022-12-07T20:54:14;95388.56;;;5.94;54.45
27425;BME280;15244;49.088;11.886;2022-12-07T20:59:25;95388.56;;;5.94;54.18
27425;BME280;15244;49.088;11.886;2022-12-07T21:04:46;95388.91;;;5.93;53.89
27425;BME280;15244;49.088;11.886;2022-12-07T21:09:48;95378.38;;;5.88;54.12
27425;BME280;15244;49.088;11.886;2022-12-07T21:15:02;95381.88;;;5.88;53.81
27425;BME280;15244;49.088;11.886;2022-12-07T21:20:09;95370.97;;;5.84;54.23
27425;BME280;15244;49.088;11.886;2022-12-07T21:25:11;95371.34;;;5.83;53.62
27425;BME280;15244;49.088;11.886;2022-12-07T21:30:17;95370.94;;;5.81;53.87
27425;BME280;15244;49.088;11.886;2022-12-07T21:35:19;95368.66;;;5.83;53.90
27425;BME280;15244;49.088;11.886;2022-12-07T21:40:21;95370.88;;;5.77;54.25
27425;BME280;15244;49.088;11.886;2022-12-07T21:45:24;95368.16;;;5.77;54.13
27425;BME280;15244;49.088;11.886;2022-12-07T21:50:28;95365.38;;;5.74;53.79
27425;BME280;15244;49.088;11.886;2022-12-07T21:55:37;95358.44;;;5.73;53.51
27425;BME280;15244;49.088;11.886;2022-12-07T22:00:42;95351.09;;;5.73;53.82
27425;BME280;15244;49.088;11.886;2022-12-07T22:05:50;95346.03;;;5.72;53.55
27425;BME280;15244;49.088;11.886;2022-12-07T22:11:00;95342.13;;;5.69;54.17
27425;BME280;15244;49.088;11.886;2022-12-07T22:16:11;95343.63;;;5.67;53.58
27425;BME280;15244;49.088;11.886;2022-12-07T22:21:18;95342.81;;;5.62;53.98
27425;BME280;15244;49.088;11.886;2022-12-07T22:26:20;95341.22;;;5.61;53.38
27425;BME280;15244;49.088;11.886;2022-12-07T22:31:31;95339.59;;;5.57;53.76
27425;BME280;15244;49.088;11.886;2022-12-07T22:36:39;95338.00;;;5.52;53.49
27425;BME280;15244;49.088;11.886;2022-12-07T22:41:41;95335.59;;;5.47;53.52
27425;BME280;15244;49.088;11.886;2022-12-07T22:46:43;95326.97;;;5.41;53.78
27425;BME280;15244;49.088;11.886;2022-12-07T22:51:49;95323.00;;;5.35;54.18
27425;BME280;15244;49.088;11.886;2022-12-07T22:56:58;95321.38;;;5.31;53.56
27425;BME280;15244;49.088;11.886;2022-12-07T23:02:02;95303.19;;;5.28;54.22
27425;BME280;15244;49.088;11.886;2022-12-07T23:07:07;95302.41;;;5.27;53.85
27425;BME280;15244;49.088;11.886;2022-12-07T23:12:09;95306.19;;;5.22;54.19
27425;BME280;15244;49.088;11.886;2022-12-07T23:17:33;95304.22;;;5.19;54.32
27425;BME280;15244;49.088;11.886;2022-12-07T23:22:37;95307.69;;;5.20;54.46
27425;BME280;15244;49.088;11.886;2022-12-07T23:27:43;95304.59;;;5.21;54.28
27425;BME280;15244;49.088;11.886;2022-12-07T23:32:47;95297.22;;;5.18;53.41
27425;BME280;15244;49.088;11.886;2022-12-07T23:37:52;95294.03;;;5.13;53.81
27425;BME280;15244;49.088;11.886;2022-12-07T23:43:01;95292.47;;;5.12;53.92
27425;BME280;15244;49.088;11.886;2022-12-07T23:48:11;95296.59;;;5.06;53.83
27425;BME280;15244;49.088;11.886;2022-12-07T23:53:12;95286.09;;;5.00;54.22
27425;BME280;15244;49.088;11.886;2022-12-07T23:58:14;95284.16;;;5.01;54.53
